createdAt,value
2023-03-05T00:02:01.614Z,9.66
2023-03-05T00:04:29.911Z,9.64
2023-03-05T00:06:58.160Z,9.59
2023-03-05T00:09:27.260Z,9.53
2023-03-05T00:11:58.297Z,9.47
2023-03-05T00:14:26.676Z,9.43
2023-03-05T00:16:55.187Z,9.41
2023-03-05T00:19:24.775Z,9.41
2023-03-05T00:21:53.548Z,9.40
2023-03-05T00:24:28.925Z,9.39
2023-03-05T00:26:57.875Z,9.38
2023-03-05T00:29:30.103Z,9.37
2023-03-05T00:31:59.886Z,9.38
2023-03-05T00:34:29.875Z,9.35
2023-03-05T00:36:59.485Z,9.26
2023-03-05T00:39:28.171Z,9.19
2023-03-05T00:41:56.953Z,9.11
2023-03-05T00:44:25.653Z,9.03
2023-03-05T00:46:54.094Z,8.98
2023-03-05T00:49:23.011Z,8.98
2023-03-05T00:51:52.419Z,8.98
2023-03-05T00:54:21.213Z,8.93
2023-03-05T00:56:50.605Z,8.86
2023-03-05T00:59:19.187Z,8.77
2023-03-05T01:01:48.000Z,8.73
2023-03-05T01:04:18.207Z,8.71
2023-03-05T01:06:47.691Z,8.71
2023-03-05T01:09:17.804Z,8.72
2023-03-05T01:11:46.187Z,8.72
2023-03-05T01:14:15.578Z,8.73
2023-03-05T01:16:44.882Z,8.74
2023-03-05T01:19:14.518Z,8.74
2023-03-05T01:21:43.167Z,8.75
2023-03-05T01:24:26.417Z,8.74
2023-03-05T01:26:55.178Z,8.74
2023-03-05T01:29:23.965Z,8.73
2023-03-05T01:31:52.815Z,8.71
2023-03-05T01:34:21.742Z,8.68
2023-03-05T01:36:56.102Z,8.65
2023-03-05T01:39:24.346Z,8.65
2023-03-05T01:41:52.818Z,8.68
2023-03-05T01:44:28.679Z,8.74
2023-03-05T01:46:57.253Z,8.78
2023-03-05T01:49:36.290Z,8.83
2023-03-05T01:52:14.171Z,8.87
2023-03-05T01:55:20.552Z,8.89
2023-03-05T01:58:02.453Z,8.90
2023-03-05T02:00:41.248Z,8.91
2023-03-05T02:03:10.394Z,8.89
2023-03-05T02:05:39.470Z,8.85
2023-03-05T02:08:11.002Z,8.84
2023-03-05T02:10:43.900Z,8.81
2023-03-05T02:13:22.822Z,8.77
2023-03-05T02:15:52.204Z,8.72
2023-03-05T02:18:22.751Z,8.71
2023-03-05T02:20:56.886Z,8.71
2023-03-05T02:23:30.260Z,8.73
2023-03-05T02:25:58.640Z,8.75
2023-03-05T02:28:33.275Z,8.75
2023-03-05T02:31:03.391Z,8.76
2023-03-05T02:33:31.658Z,8.76
2023-03-05T02:36:03.017Z,8.72
2023-03-05T02:38:32.113Z,8.67
2023-03-05T02:41:00.587Z,8.60
2023-03-05T02:43:29.167Z,8.55
2023-03-05T02:45:58.153Z,8.51
2023-03-05T02:48:26.539Z,8.45
2023-03-05T02:50:55.533Z,8.43
2023-03-05T02:53:26.574Z,8.41
2023-03-05T02:55:54.854Z,8.39
2023-03-05T02:58:23.224Z,8.40
2023-03-05T03:00:51.977Z,8.39
2023-03-05T03:03:20.824Z,8.37
2023-03-05T03:05:49.687Z,8.34
2023-03-05T03:08:18.274Z,8.33
2023-03-05T03:10:56.638Z,8.27
2023-03-05T03:13:26.298Z,8.22
2023-03-05T03:16:05.720Z,8.18
2023-03-05T03:18:34.008Z,8.14
2023-03-05T03:21:03.099Z,8.08
2023-03-05T03:23:34.287Z,8.03
2023-03-05T03:26:02.526Z,8.01
2023-03-05T03:28:31.104Z,7.97
2023-03-05T03:30:59.711Z,7.92
2023-03-05T03:33:28.196Z,7.87
2023-03-05T03:35:56.594Z,7.82
2023-03-05T03:38:25.134Z,7.80
2023-03-05T03:40:55.967Z,7.78
2023-03-05T03:43:24.960Z,7.74
2023-03-05T03:45:53.472Z,7.70
2023-03-05T03:48:22.434Z,7.66
2023-03-05T03:50:50.685Z,7.64
2023-03-05T03:53:18.881Z,7.61
2023-03-05T03:55:47.464Z,7.59
2023-03-05T03:58:15.741Z,7.55
2023-03-05T04:00:44.022Z,7.52
2023-03-05T04:03:13.829Z,7.49
2023-03-05T04:05:43.846Z,7.44
2023-03-05T04:08:12.940Z,7.42
2023-03-05T04:10:41.737Z,7.42
2023-03-05T04:13:10.821Z,7.43
2023-03-05T04:15:44.553Z,7.42
2023-03-05T04:18:12.900Z,7.40
2023-03-05T04:20:41.493Z,7.40
2023-03-05T04:23:10.580Z,7.42
2023-03-05T04:25:39.063Z,7.42
2023-03-05T04:28:07.642Z,7.42
2023-03-05T04:34:17.308Z,7.48
2023-03-05T04:36:45.783Z,7.48
2023-03-05T04:39:14.981Z,7.49
2023-03-05T04:41:43.765Z,7.51
2023-03-05T04:44:14.091Z,7.53
2023-03-05T04:46:42.514Z,7.53
2023-03-05T04:49:11.077Z,7.53
2023-03-05T04:51:40.964Z,7.56
2023-03-05T04:54:09.575Z,7.57
2023-03-05T05:00:07.131Z,7.65
2023-03-05T05:02:35.576Z,7.65
2023-03-05T05:05:04.193Z,7.66
2023-03-05T05:07:33.085Z,7.67
2023-03-05T05:10:05.148Z,7.65
2023-03-05T05:12:33.832Z,7.64
2023-03-05T05:15:02.724Z,7.65
2023-03-05T05:17:33.170Z,7.67
2023-03-05T05:20:06.755Z,7.69
2023-03-05T05:22:35.950Z,7.73
2023-03-05T05:25:05.348Z,7.74
2023-03-05T05:27:34.650Z,7.75
2023-03-05T05:30:04.350Z,7.75
2023-03-05T05:32:32.673Z,7.74
2023-03-05T05:35:01.163Z,7.75
2023-03-05T05:37:30.116Z,7.78
2023-03-05T05:39:59.512Z,7.79
2023-03-05T05:42:29.732Z,7.80
2023-03-05T05:44:58.728Z,7.81
2023-03-05T05:47:28.137Z,7.82
2023-03-05T05:49:57.236Z,7.82
2023-03-05T05:52:25.928Z,7.86
2023-03-05T05:54:54.203Z,7.89
2023-03-05T05:57:22.567Z,7.93
2023-03-05T05:59:51.457Z,7.94
2023-03-05T06:02:19.906Z,7.97
2023-03-05T06:04:48.723Z,7.99
2023-03-05T06:07:17.022Z,8.01
2023-03-05T06:09:45.274Z,8.02
2023-03-05T06:12:17.331Z,8.03
2023-03-05T06:15:06.408Z,8.02
2023-03-05T06:17:34.987Z,8.00
2023-03-05T06:20:06.980Z,7.96
2023-03-05T06:22:37.884Z,7.95
2023-03-05T06:25:09.739Z,7.99
2023-03-05T06:27:38.737Z,8.06
2023-03-05T06:30:08.345Z,8.20
2023-03-05T06:32:39.138Z,8.37
2023-03-05T06:35:08.203Z,8.44
2023-03-05T06:37:37.675Z,8.46
2023-03-05T06:40:07.886Z,8.46
2023-03-05T06:42:36.478Z,8.48
2023-03-05T06:45:05.755Z,8.55
2023-03-05T06:47:35.277Z,8.64
2023-03-05T06:50:05.954Z,8.72
2023-03-05T06:52:34.603Z,8.80
2023-03-05T06:55:05.437Z,8.85
2023-03-05T06:57:34.849Z,8.88
2023-03-05T07:00:09.564Z,8.95
2023-03-05T07:02:38.627Z,9.00
2023-03-05T07:05:07.743Z,9.01
2023-03-05T07:07:41.360Z,8.99
2023-03-05T07:10:11.579Z,9.02
2023-03-05T07:12:44.269Z,9.03
2023-03-05T07:15:12.945Z,8.99
2023-03-05T07:17:41.527Z,8.96
2023-03-05T07:20:10.739Z,8.96
2023-03-05T07:22:39.203Z,9.00
2023-03-05T07:25:08.193Z,9.05
2023-03-05T07:27:38.210Z,9.04
2023-03-05T07:30:07.611Z,8.99
2023-03-05T07:32:36.377Z,8.93
2023-03-05T07:35:05.492Z,8.90
2023-03-05T07:37:36.653Z,8.89
2023-03-05T07:40:06.247Z,8.90
2023-03-05T07:42:39.606Z,8.92
2023-03-05T07:45:18.364Z,8.92
2023-03-05T07:47:46.623Z,8.90
2023-03-05T07:50:14.912Z,8.89
2023-03-05T07:52:43.699Z,8.88
2023-03-05T07:55:12.494Z,8.90
2023-03-05T07:57:41.075Z,8.94
2023-03-05T08:00:10.066Z,9.00
2023-03-05T08:02:41.509Z,9.08
2023-03-05T08:05:10.555Z,9.12
2023-03-05T08:07:54.453Z,9.17
2023-03-05T08:10:23.236Z,9.15
2023-03-05T08:12:51.720Z,9.13
2023-03-05T08:15:20.414Z,9.12
2023-03-05T08:17:49.119Z,9.15
2023-03-05T08:20:19.412Z,9.20
2023-03-05T08:22:48.097Z,9.27
2023-03-05T08:25:18.627Z,9.37
2023-03-05T08:27:49.973Z,9.45
2023-03-05T08:30:22.340Z,9.52
2023-03-05T08:32:51.759Z,9.56
2023-03-05T08:35:20.759Z,9.60
2023-03-05T08:37:54.551Z,9.65
2023-03-05T08:40:24.074Z,9.73
2023-03-05T08:42:52.532Z,9.83
2023-03-05T08:45:24.090Z,9.92
2023-03-05T08:47:52.671Z,10.01
2023-03-05T08:50:26.575Z,10.12
2023-03-05T08:52:57.220Z,10.24
2023-03-05T08:55:25.800Z,10.34
2023-03-05T08:57:54.274Z,10.36
2023-03-05T09:00:23.304Z,10.36
2023-03-05T09:02:52.821Z,10.41
2023-03-05T09:05:21.449Z,10.42
2023-03-05T09:07:50.647Z,10.43
2023-03-05T09:10:21.585Z,10.47
2023-03-05T09:12:50.066Z,10.44
2023-03-05T09:15:19.998Z,10.33
2023-03-05T09:17:51.637Z,10.22
2023-03-05T09:20:20.225Z,10.18
2023-03-05T09:22:51.682Z,10.15
2023-03-05T09:25:20.351Z,10.13
2023-03-05T09:27:48.833Z,10.08
2023-03-05T09:30:17.925Z,10.04
2023-03-05T09:32:46.678Z,10.00
2023-03-05T09:35:16.328Z,10.03
2023-03-05T09:37:45.213Z,10.08
2023-03-05T09:40:16.071Z,10.12
2023-03-05T09:43:12.589Z,10.18
2023-03-05T09:46:06.604Z,10.25
2023-03-05T09:48:56.654Z,10.32
2023-03-05T09:51:26.665Z,10.39
2023-03-05T09:54:03.860Z,10.41
2023-03-05T09:56:37.905Z,10.41
2023-03-05T09:59:14.760Z,10.46
2023-03-05T10:01:43.117Z,10.50
2023-03-05T10:04:18.505Z,10.46
2023-03-05T10:06:46.837Z,10.42
2023-03-05T10:09:22.134Z,10.45
2023-03-05T10:12:01.016Z,10.47
2023-03-05T10:14:39.215Z,10.50
2023-03-05T10:17:31.390Z,10.48
2023-03-05T10:20:08.121Z,10.45
2023-03-05T10:23:09.778Z,10.42
2023-03-05T10:26:07.341Z,10.41
2023-03-05T10:28:42.398Z,10.43
2023-03-05T10:31:25.263Z,10.44
2023-03-05T10:34:01.157Z,10.49
2023-03-05T10:36:51.953Z,10.55
2023-03-05T10:39:41.951Z,10.59
2023-03-05T10:42:13.489Z,10.60
2023-03-05T10:44:44.121Z,10.63
2023-03-05T10:47:25.092Z,10.69
2023-03-05T10:49:55.017Z,10.73
2023-03-05T10:52:35.987Z,10.76
2023-03-05T10:55:20.455Z,10.80
2023-03-05T10:57:49.836Z,10.86
2023-03-05T11:00:19.935Z,10.89
2023-03-05T11:02:58.093Z,10.93
2023-03-05T11:05:44.407Z,10.96
2023-03-05T11:08:36.112Z,10.99
2023-03-05T11:11:13.061Z,11.01
2023-03-05T11:13:59.871Z,11.05
2023-03-05T11:16:30.223Z,11.11
2023-03-05T11:19:18.854Z,11.13
2023-03-05T11:22:04.226Z,11.15
2023-03-05T11:24:34.041Z,11.19
2023-03-05T11:27:02.311Z,11.23
2023-03-05T11:33:15.775Z,11.28
2023-03-05T11:35:44.908Z,11.27
2023-03-05T11:38:21.335Z,11.28
2023-03-05T11:40:52.092Z,11.33
2023-03-05T11:43:22.600Z,11.35
2023-03-05T11:46:02.907Z,11.36
2023-03-05T11:48:51.195Z,11.38
2023-03-05T11:51:39.310Z,11.40
2023-03-05T11:54:09.486Z,11.48
2023-03-05T11:56:39.986Z,11.58
2023-03-05T11:59:28.851Z,11.62
2023-03-05T12:02:00.587Z,11.65
2023-03-05T12:04:29.805Z,11.67
2023-03-05T12:06:59.139Z,11.72
2023-03-05T12:09:41.170Z,11.78
2023-03-05T12:12:21.664Z,11.83
2023-03-05T12:15:02.035Z,11.84
2023-03-05T12:18:19.968Z,11.87
2023-03-05T12:21:04.321Z,11.89
2023-03-05T12:23:59.128Z,11.88
2023-03-05T12:27:04.532Z,11.87
2023-03-05T12:29:33.175Z,11.89
2023-03-05T12:32:31.642Z,11.91
2023-03-05T12:35:19.609Z,11.94
2023-03-05T12:37:48.252Z,11.95
2023-03-05T12:40:21.451Z,11.94
2023-03-05T12:42:52.414Z,11.94
2023-03-05T12:45:34.790Z,11.95
2023-03-05T12:48:03.884Z,11.99
2023-03-05T12:50:52.914Z,12.04
2023-03-05T12:53:22.451Z,12.10
2023-03-05T12:55:59.708Z,12.15
2023-03-05T12:58:37.337Z,12.21
2023-03-05T13:04:31.020Z,12.27
2023-03-05T13:07:04.645Z,12.23
2023-03-05T13:09:36.620Z,12.22
2023-03-05T13:12:06.758Z,12.22
2023-03-05T13:14:43.084Z,12.22
2023-03-05T13:17:30.900Z,12.23
2023-03-05T13:20:01.638Z,12.25
2023-03-05T13:22:30.211Z,12.25
2023-03-05T13:25:06.077Z,12.24
2023-03-05T13:27:36.189Z,12.23
2023-03-05T13:30:05.081Z,12.21
2023-03-05T13:32:35.130Z,12.20
2023-03-05T13:35:03.570Z,12.18
2023-03-05T13:37:37.067Z,12.18
2023-03-05T13:40:20.014Z,12.17
2023-03-05T13:42:48.673Z,12.15
2023-03-05T13:45:31.335Z,12.15
2023-03-05T13:48:03.239Z,12.16
2023-03-05T13:50:39.814Z,12.19
2023-03-05T13:53:19.672Z,12.21
2023-03-05T13:55:53.568Z,12.21
2023-03-05T13:58:41.631Z,12.17
2023-03-05T14:01:28.634Z,12.11
2023-03-05T14:04:07.138Z,12.04
2023-03-05T14:06:40.942Z,11.98
2023-03-05T14:09:19.970Z,11.90
2023-03-05T14:11:57.466Z,11.85
2023-03-05T14:14:26.153Z,11.79
2023-03-05T14:17:17.158Z,11.65
2023-03-05T14:19:45.560Z,11.65
2023-03-05T14:22:33.784Z,11.60
2023-03-05T14:25:03.860Z,11.53
2023-03-05T14:27:35.160Z,11.47
2023-03-05T14:30:04.664Z,11.42
2023-03-05T14:32:36.766Z,11.38
2023-03-05T14:35:06.152Z,11.35
2023-03-05T14:37:42.280Z,11.30
2023-03-05T14:40:13.725Z,11.25
2023-03-05T14:42:59.455Z,11.19
2023-03-05T14:45:33.411Z,11.16
2023-03-05T14:48:03.030Z,11.16
2023-03-05T14:50:42.633Z,11.16
2023-03-05T14:53:48.492Z,11.14
2023-03-05T14:56:24.020Z,11.14
2023-03-05T14:58:53.200Z,11.12
2023-03-05T15:01:21.473Z,11.10
2023-03-05T15:03:50.648Z,11.08
2023-03-05T15:06:26.628Z,11.05
2023-03-05T15:08:55.181Z,11.02
2023-03-05T15:11:23.771Z,11.00
2023-03-05T15:13:53.578Z,10.97
2023-03-05T15:16:21.796Z,10.95
2023-03-05T15:18:50.333Z,10.93
2023-03-05T15:21:19.425Z,10.89
2023-03-05T15:23:48.115Z,10.85
2023-03-05T15:26:16.799Z,10.82
2023-03-05T15:28:45.379Z,10.79
2023-03-05T15:31:13.877Z,10.74
2023-03-05T15:33:42.961Z,10.69
2023-03-05T15:36:12.356Z,10.65
2023-03-05T15:38:41.810Z,10.60
2023-03-05T15:41:10.050Z,10.55
2023-03-05T15:43:39.231Z,10.50
2023-03-05T15:46:07.745Z,10.45
2023-03-05T15:48:39.265Z,10.40
2023-03-05T15:51:07.775Z,10.35
2023-03-05T15:53:36.031Z,10.31
2023-03-05T15:56:04.809Z,10.26
2023-03-05T15:58:33.093Z,10.21
2023-03-05T16:01:01.574Z,10.16
2023-03-05T16:03:30.183Z,10.11
2023-03-05T16:05:58.541Z,10.06
2023-03-05T16:08:28.238Z,10.03
2023-03-05T16:10:56.826Z,10.00
2023-03-05T16:13:28.249Z,9.96
2023-03-05T16:15:57.485Z,9.93
2023-03-05T16:18:25.888Z,9.89
2023-03-05T16:20:55.561Z,9.84
2023-03-05T16:23:23.979Z,9.82
2023-03-05T16:25:55.493Z,9.80
2023-03-05T16:28:23.767Z,9.77
2023-03-05T16:30:56.149Z,9.75
2023-03-05T16:33:25.132Z,9.72
2023-03-05T16:36:20.946Z,9.70
2023-03-05T16:38:57.701Z,9.68
2023-03-05T16:41:26.927Z,9.66
2023-03-05T16:43:56.648Z,9.63
2023-03-05T16:46:26.189Z,9.61
2023-03-05T16:48:55.755Z,9.58
2023-03-05T16:51:30.988Z,9.55
2023-03-05T16:53:59.568Z,9.52
2023-03-05T16:56:27.959Z,9.49
2023-03-05T16:58:56.691Z,9.47
2023-03-05T17:01:25.509Z,9.44
2023-03-05T17:03:57.467Z,9.41
2023-03-05T17:06:28.017Z,9.40
2023-03-05T17:08:58.845Z,9.36
2023-03-05T17:11:27.741Z,9.34
2023-03-05T17:13:58.161Z,9.32
2023-03-05T17:16:27.910Z,9.31
2023-03-05T17:19:01.166Z,9.30
2023-03-05T17:21:29.958Z,9.31
2023-03-05T17:23:58.553Z,9.32
2023-03-05T17:26:28.135Z,9.32
2023-03-05T17:28:56.532Z,9.30
2023-03-05T17:31:25.043Z,9.26
2023-03-05T17:33:56.661Z,9.23
2023-03-05T17:36:25.546Z,9.20
2023-03-05T17:38:53.930Z,9.17
2023-03-05T17:41:22.512Z,9.13
2023-03-05T17:43:57.069Z,9.07
2023-03-05T17:46:26.130Z,9.03
2023-03-05T17:48:54.401Z,9.00
2023-03-05T17:51:22.677Z,8.97
2023-03-05T17:53:51.155Z,8.95
2023-03-05T17:56:23.113Z,8.92
2023-03-05T17:58:52.423Z,8.89
2023-03-05T18:01:31.446Z,8.86
2023-03-05T18:03:59.932Z,8.83
2023-03-05T18:06:29.964Z,8.82
2023-03-05T18:08:59.146Z,8.80
2023-03-05T18:11:29.160Z,8.79
2023-03-05T18:13:59.277Z,8.77
2023-03-05T18:16:27.800Z,8.76
2023-03-05T18:18:56.851Z,8.75
2023-03-05T18:21:28.321Z,8.75
2023-03-05T18:23:56.882Z,8.75
2023-03-05T18:26:25.571Z,8.75
2023-03-05T18:28:53.926Z,8.74
2023-03-05T18:31:22.321Z,8.74
2023-03-05T18:33:51.321Z,8.72
2023-03-05T18:36:20.412Z,8.70
2023-03-05T18:38:48.684Z,8.67
2023-03-05T18:41:21.836Z,8.64
2023-03-05T18:43:50.969Z,8.61
2023-03-05T18:46:20.003Z,8.57
2023-03-05T18:48:49.569Z,8.53
2023-03-05T18:51:21.937Z,8.49
2023-03-05T18:53:52.165Z,8.46
2023-03-05T18:56:22.085Z,8.45
2023-03-05T18:58:51.210Z,8.43
2023-03-05T19:01:20.110Z,8.41
2023-03-05T19:03:49.363Z,8.38
2023-03-05T19:06:18.051Z,8.35
2023-03-05T19:09:08.524Z,8.31
2023-03-05T19:11:47.592Z,8.24
2023-03-05T19:14:16.178Z,8.18
2023-03-05T19:16:45.249Z,8.15
2023-03-05T19:19:20.468Z,8.14
2023-03-05T19:21:55.426Z,8.13
2023-03-05T19:24:25.153Z,8.12
2023-03-05T19:26:56.176Z,8.11
2023-03-05T19:29:25.377Z,8.11
2023-03-05T19:31:53.954Z,8.10
2023-03-05T19:34:22.332Z,8.08
2023-03-05T19:36:51.014Z,8.07
2023-03-05T19:39:24.921Z,8.04
2023-03-05T19:41:53.408Z,8.01
2023-03-05T19:44:21.787Z,7.99
2023-03-05T19:46:50.462Z,7.97
2023-03-05T19:49:19.875Z,7.95
2023-03-05T19:51:49.160Z,7.92
2023-03-05T19:54:19.240Z,7.90
2023-03-05T19:56:48.069Z,7.87
2023-03-05T19:59:18.194Z,7.84
2023-03-05T20:01:46.901Z,7.82
2023-03-05T20:04:20.783Z,7.80
2023-03-05T20:06:49.490Z,7.78
2023-03-05T20:09:20.719Z,7.76
2023-03-05T20:11:49.199Z,7.73
2023-03-05T20:14:17.780Z,7.71
2023-03-05T20:16:46.666Z,7.70
2023-03-05T20:19:17.102Z,7.67
2023-03-05T20:21:45.477Z,7.67
2023-03-05T20:24:16.015Z,7.65
2023-03-05T20:26:45.638Z,7.64
2023-03-05T20:29:17.342Z,7.62
2023-03-05T20:31:46.530Z,7.60
2023-03-05T20:34:16.888Z,7.59
2023-03-05T20:36:46.905Z,7.58
2023-03-05T20:39:15.804Z,7.57
2023-03-05T20:41:47.243Z,7.55
2023-03-05T20:44:17.158Z,7.53
2023-03-05T20:47:22.232Z,7.52
2023-03-05T20:50:07.827Z,7.52
2023-03-05T20:52:37.386Z,7.51
2023-03-05T20:55:06.918Z,7.50
2023-03-05T20:57:35.203Z,7.51
2023-03-05T21:00:04.368Z,7.51
2023-03-05T21:02:33.268Z,7.50
2023-03-05T21:05:01.941Z,7.49
2023-03-05T21:07:31.136Z,7.49
2023-03-05T21:09:59.522Z,7.49
2023-03-05T21:12:29.432Z,7.48
2023-03-05T21:14:59.550Z,7.50
2023-03-05T21:17:30.898Z,7.49
2023-03-05T21:19:59.283Z,7.49
2023-03-05T21:22:27.776Z,7.46
2023-03-05T21:25:12.738Z,7.45
2023-03-05T21:27:42.480Z,7.44
2023-03-05T21:30:18.810Z,7.43
2023-03-05T21:32:48.501Z,7.42
2023-03-05T21:35:18.863Z,7.40
2023-03-05T21:37:47.718Z,7.39
2023-03-05T21:40:17.820Z,7.39
2023-03-05T21:42:46.832Z,7.38
2023-03-05T21:45:17.994Z,7.38
2023-03-05T21:47:46.555Z,7.37
2023-03-05T21:50:15.348Z,7.36
2023-03-05T21:52:50.068Z,7.36
2023-03-05T21:55:20.399Z,7.35
2023-03-05T21:57:48.665Z,7.35
2023-03-05T22:00:22.880Z,7.36
2023-03-05T22:02:51.788Z,7.36
2023-03-05T22:05:20.349Z,7.36
2023-03-05T22:07:49.545Z,7.36
2023-03-05T22:10:22.705Z,7.37
2023-03-05T22:13:10.998Z,7.37
2023-03-05T22:15:45.807Z,7.36
2023-03-05T22:18:29.149Z,7.36
2023-03-05T22:20:57.919Z,7.37
2023-03-05T22:23:29.372Z,7.37
2023-03-05T22:25:58.674Z,7.38
2023-03-05T22:28:27.476Z,7.37
2023-03-05T22:30:57.292Z,7.38
2023-03-05T22:33:26.215Z,7.38
2023-03-05T22:35:55.092Z,7.39
2023-03-05T22:38:24.353Z,7.38
2023-03-05T22:40:53.303Z,7.37
2023-03-05T22:43:22.959Z,7.36
2023-03-05T22:45:51.356Z,7.36
2023-03-05T22:48:19.809Z,7.36
2023-03-05T22:50:54.872Z,7.36
2023-03-05T22:53:23.118Z,7.36
2023-03-05T22:55:51.395Z,7.35
2023-03-05T22:58:21.966Z,7.34
2023-03-05T23:00:50.300Z,7.33
2023-03-05T23:03:18.580Z,7.33
2023-03-05T23:05:47.676Z,7.32
2023-03-05T23:08:16.677Z,7.31
2023-03-05T23:10:46.075Z,7.29
2023-03-05T23:13:14.462Z,7.28
2023-03-05T23:15:42.985Z,7.26
2023-03-05T23:18:15.313Z,7.24
2023-03-05T23:20:44.006Z,7.21
2023-03-05T23:23:12.776Z,7.18
2023-03-05T23:25:42.102Z,7.15
2023-03-05T23:28:10.370Z,7.12
2023-03-05T23:30:39.765Z,7.08
2023-03-05T23:33:14.746Z,7.04
2023-03-05T23:35:49.873Z,7.01
2023-03-05T23:38:20.250Z,6.97
2023-03-05T23:40:50.282Z,6.94
2023-03-05T23:43:19.162Z,6.90
2023-03-05T23:45:48.697Z,6.88
2023-03-05T23:48:17.186Z,6.86
2023-03-05T23:50:47.773Z,6.83
2023-03-05T23:53:20.770Z,6.81
2023-03-05T23:55:49.472Z,6.79
2023-03-05T23:58:23.976Z,6.74
